sensor_id;sensor_type;location;lat;lon;timestamp;pressure;altitude;pressure_sealevel;temperature;humidity
81155;BME280;70631;50.436;7.826;2023-06-24T00:00:34;99991.03;;;17.71;66.93
81155;BME280;70631;50.436;7.826;2023-06-24T00:02:59;99991.19;;;17.69;66.72
81155;BME280;70631;50.436;7.826;2023-06-24T00:05:27;99995.22;;;17.65;66.63
81155;BME280;70631;50.436;7.826;2023-06-24T00:07:52;99990.50;;;17.59;66.51
81155;BME280;70631;50.436;7.826;2023-06-24T00:10:18;99991.34;;;17.52;67.12
81155;BME280;70631;50.436;7.826;2023-06-24T00:12:43;99997.06;;;17.49;67.10
81155;BME280;70631;50.436;7.826;2023-06-24T00:15:09;99995.53;;;17.46;67.06
81155;BME280;70631;50.436;7.826;2023-06-24T00:17:35;99999.59;;;17.42;66.95
81155;BME280;70631;50.436;7.826;2023-06-24T00:20:01;99989.16;;;17.39;67.33
81155;BME280;70631;50.436;7.826;2023-06-24T00:22:29;99983.56;;;17.32;67.61
81155;BME280;70631;50.436;7.826;2023-06-24T00:24:54;99992.16;;;17.28;67.99
81155;BME280;70631;50.436;7.826;2023-06-24T00:27:19;99990.47;;;17.27;68.02
81155;BME280;70631;50.436;7.826;2023-06-24T00:29:45;99992.84;;;17.22;68.22
81155;BME280;70631;50.436;7.826;2023-06-24T00:32:10;99989.47;;;17.20;68.58
81155;BME280;70631;50.436;7.826;2023-06-24T00:34:35;99988.81;;;17.18;68.23
81155;BME280;70631;50.436;7.826;2023-06-24T00:37:01;99986.75;;;17.11;68.13
81155;BME280;70631;50.436;7.826;2023-06-24T00:39:28;99985.41;;;17.07;68.63
81155;BME280;70631;50.436;7.826;2023-06-24T00:41:53;99982.03;;;17.05;68.96
81155;BME280;70631;50.436;7.826;2023-06-24T00:44:19;99980.34;;;17.04;68.98
81155;BME280;70631;50.436;7.826;2023-06-24T00:46:44;99986.25;;;17.00;68.95
81155;BME280;70631;50.436;7.826;2023-06-24T00:49:10;99986.41;;;16.98;68.81
81155;BME280;70631;50.436;7.826;2023-06-24T00:51:40;99992.13;;;16.95;68.74
81155;BME280;70631;50.436;7.826;2023-06-24T00:54:15;99990.75;;;16.91;69.11
81155;BME280;70631;50.436;7.826;2023-06-24T00:56:41;99991.91;;;16.89;68.90
81155;BME280;70631;50.436;7.826;2023-06-24T00:59:08;99987.72;;;16.86;69.06
81155;BME280;70631;50.436;7.826;2023-06-24T01:01:36;99993.94;;;16.87;69.48
81155;BME280;70631;50.436;7.826;2023-06-24T01:04:03;99987.72;;;16.86;69.82
81155;BME280;70631;50.436;7.826;2023-06-24T01:06:29;99992.25;;;16.86;69.20
81155;BME280;70631;50.436;7.826;2023-06-24T01:08:58;99996.09;;;16.75;69.32
81155;BME280;70631;50.436;7.826;2023-06-24T01:11:25;99998.88;;;16.65;69.97
81155;BME280;70631;50.436;7.826;2023-06-24T01:13:51;100002.91;;;16.61;69.93
81155;BME280;70631;50.436;7.826;2023-06-24T01:16:30;100002.38;;;16.49;70.00
81155;BME280;70631;50.436;7.826;2023-06-24T01:19:06;100006.91;;;16.49;69.74
81155;BME280;70631;50.436;7.826;2023-06-24T01:22:13;100007.16;;;16.30;69.95
81155;BME280;70631;50.436;7.826;2023-06-24T01:25:07;100008.59;;;16.24;70.52
81155;BME280;70631;50.436;7.826;2023-06-24T01:30:34;100006.59;;;16.26;70.97
81155;BME280;70631;50.436;7.826;2023-06-24T01:33:09;99997.56;;;16.27;71.25
81155;BME280;70631;50.436;7.826;2023-06-24T01:35:36;100011.03;;;16.35;70.89
81155;BME280;70631;50.436;7.826;2023-06-24T01:38:07;100007.66;;;16.33;71.08
81155;BME280;70631;50.436;7.826;2023-06-24T01:40:38;100004.81;;;16.35;71.47
81155;BME280;70631;50.436;7.826;2023-06-24T01:43:06;100009.72;;;16.39;71.05
81155;BME280;70631;50.436;7.826;2023-06-24T01:45:37;100004.66;;;16.36;71.04
81155;BME280;70631;50.436;7.826;2023-06-24T01:48:11;99994.06;;;16.35;70.70
81155;BME280;70631;50.436;7.826;2023-06-24T01:50:39;100004.66;;;16.36;71.24
81155;BME280;70631;50.436;7.826;2023-06-24T01:53:07;99999.44;;;16.35;71.26
81155;BME280;70631;50.436;7.826;2023-06-24T01:55:34;100008.66;;;16.32;70.89
81155;BME280;70631;50.436;7.826;2023-06-24T01:58:02;100007.31;;;16.28;70.92
81155;BME280;70631;50.436;7.826;2023-06-24T02:00:30;100007.59;;;16.25;70.98
81155;BME280;70631;50.436;7.826;2023-06-24T02:02:56;100006.41;;;16.19;71.45
81155;BME280;70631;50.436;7.826;2023-06-24T02:05:23;100006.56;;;16.18;71.56
81155;BME280;70631;50.436;7.826;2023-06-24T02:07:51;100002.50;;;16.14;71.16
81155;BME280;70631;50.436;7.826;2023-06-24T02:10:18;100006.88;;;16.15;71.50
81155;BME280;70631;50.436;7.826;2023-06-24T02:12:46;100005.53;;;16.11;71.62
81155;BME280;70631;50.436;7.826;2023-06-24T02:15:13;100005.84;;;16.08;71.67
81155;BME280;70631;50.436;7.826;2023-06-24T02:17:39;100005.78;;;16.00;71.53
81155;BME280;70631;50.436;7.826;2023-06-24T02:20:06;99999.34;;;15.93;71.84
81155;BME280;70631;50.436;7.826;2023-06-24T02:22:36;100008.09;;;15.95;71.72
81155;BME280;70631;50.436;7.826;2023-06-24T02:25:04;100001.72;;;15.96;71.78
81155;BME280;70631;50.436;7.826;2023-06-24T02:27:31;100003.41;;;15.97;71.09
81155;BME280;70631;50.436;7.826;2023-06-24T02:29:58;99997.34;;;15.95;71.64
81155;BME280;70631;50.436;7.826;2023-06-24T02:32:24;100007.41;;;15.93;71.74
81155;BME280;70631;50.436;7.826;2023-06-24T02:34:49;100001.38;;;15.91;71.94
81155;BME280;70631;50.436;7.826;2023-06-24T02:37:15;99998.00;;;15.88;71.72
81155;BME280;70631;50.436;7.826;2023-06-24T02:39:40;99992.94;;;15.85;71.97
81155;BME280;70631;50.436;7.826;2023-06-24T02:42:10;99993.09;;;15.84;72.09
81155;BME280;70631;50.436;7.826;2023-06-24T02:44:36;99993.22;;;15.82;71.88
81155;BME280;70631;50.436;7.826;2023-06-24T02:47:02;99992.69;;;15.79;71.77
81155;BME280;70631;50.436;7.826;2023-06-24T02:49:27;99998.56;;;15.74;71.82
81155;BME280;70631;50.436;7.826;2023-06-24T02:51:53;100001.03;;;15.68;71.83
81155;BME280;70631;50.436;7.826;2023-06-24T02:54:19;100001.50;;;15.63;71.54
81155;BME280;70631;50.436;7.826;2023-06-24T02:56:44;100001.78;;;15.60;72.20
81155;BME280;70631;50.436;7.826;2023-06-24T02:59:10;100001.06;;;15.58;72.00
81155;BME280;70631;50.436;7.826;2023-06-24T03:01:36;100004.06;;;15.55;71.70
81155;BME280;70631;50.436;7.826;2023-06-24T03:04:04;100000.03;;;15.51;72.07
81155;BME280;70631;50.436;7.826;2023-06-24T03:06:29;99996.97;;;15.46;72.45
81155;BME280;70631;50.436;7.826;2023-06-24T03:08:57;99998.66;;;15.47;72.85
81155;BME280;70631;50.436;7.826;2023-06-24T03:11:23;99991.44;;;15.47;72.61
81155;BME280;70631;50.436;7.826;2023-06-24T03:13:48;100009.06;;;15.50;73.04
81155;BME280;70631;50.436;7.826;2023-06-24T03:16:13;100002.03;;;15.49;72.54
81155;BME280;70631;50.436;7.826;2023-06-24T03:18:43;100003.34;;;15.45;72.69
81155;BME280;70631;50.436;7.826;2023-06-24T03:21:09;100006.19;;;15.43;72.63
81155;BME280;70631;50.436;7.826;2023-06-24T03:23:34;100002.66;;;15.43;72.74
81155;BME280;70631;50.436;7.826;2023-06-24T03:26:00;100001.13;;;15.40;72.86
81155;BME280;70631;50.436;7.826;2023-06-24T03:28:25;100006.63;;;15.39;72.95
81155;BME280;70631;50.436;7.826;2023-06-24T03:30:51;100014.66;;;15.39;72.74
81155;BME280;70631;50.436;7.826;2023-06-24T03:33:16;100024.72;;;15.37;72.97
81155;BME280;70631;50.436;7.826;2023-06-24T03:35:43;100025.56;;;15.37;73.08
81155;BME280;70631;50.436;7.826;2023-06-24T03:38:08;100018.50;;;15.36;72.85
81155;BME280;70631;50.436;7.826;2023-06-24T03:40:34;100014.28;;;15.34;72.72
81155;BME280;70631;50.436;7.826;2023-06-24T03:42:59;100012.59;;;15.33;73.27
81155;BME280;70631;50.436;7.826;2023-06-24T03:45:24;100017.66;;;15.36;72.92
81155;BME280;70631;50.436;7.826;2023-06-24T03:47:50;100025.41;;;15.39;72.81
81155;BME280;70631;50.436;7.826;2023-06-24T03:50:15;100025.13;;;15.42;73.31
81155;BME280;70631;50.436;7.826;2023-06-24T03:52:40;100019.59;;;15.43;73.21
81155;BME280;70631;50.436;7.826;2023-06-24T03:55:05;100013.06;;;15.46;73.10
81155;BME280;70631;50.436;7.826;2023-06-24T03:57:31;100015.44;;;15.49;72.83
81155;BME280;70631;50.436;7.826;2023-06-24T03:59:56;100022.34;;;15.51;72.94
81155;BME280;70631;50.436;7.826;2023-06-24T04:02:21;100024.34;;;15.49;72.84
81155;BME280;70631;50.436;7.826;2023-06-24T04:04:47;100023.50;;;15.49;72.75
81155;BME280;70631;50.436;7.826;2023-06-24T04:07:16;100025.19;;;15.50;72.90
81155;BME280;70631;50.436;7.826;2023-06-24T04:09:53;100026.19;;;15.49;72.88
81155;BME280;70631;50.436;7.826;2023-06-24T04:12:19;100022.50;;;15.50;72.78
81155;BME280;70631;50.436;7.826;2023-06-24T04:14:44;100023.34;;;15.50;72.74
81155;BME280;70631;50.436;7.826;2023-06-24T04:17:09;100013.81;;;15.56;72.78
81155;BME280;70631;50.436;7.826;2023-06-24T04:19:35;100013.53;;;15.59;72.61
81155;BME280;70631;50.436;7.826;2023-06-24T04:22:00;100022.00;;;15.64;72.48
81155;BME280;70631;50.436;7.826;2023-06-24T04:24:25;100027.38;;;15.64;72.39
81155;BME280;70631;50.436;7.826;2023-06-24T04:26:50;100022.00;;;15.64;71.76
81155;BME280;70631;50.436;7.826;2023-06-24T04:29:16;100024.53;;;15.66;71.88
81155;BME280;70631;50.436;7.826;2023-06-24T04:31:41;100026.75;;;15.70;71.89
81155;BME280;70631;50.436;7.826;2023-06-24T04:34:06;100028.94;;;15.75;72.34
81155;BME280;70631;50.436;7.826;2023-06-24T04:36:32;100024.78;;;15.80;72.08
81155;BME280;70631;50.436;7.826;2023-06-24T04:38:57;100035.63;;;15.88;72.28
81155;BME280;70631;50.436;7.826;2023-06-24T04:41:22;100033.97;;;15.96;71.92
81155;BME280;70631;50.436;7.826;2023-06-24T04:43:47;100029.66;;;16.03;71.71
81155;BME280;70631;50.436;7.826;2023-06-24T04:46:13;100027.53;;;16.06;71.59
81155;BME280;70631;50.436;7.826;2023-06-24T04:48:38;100033.09;;;16.13;71.75
81155;BME280;70631;50.436;7.826;2023-06-24T04:51:03;100027.06;;;16.19;71.54
81155;BME280;70631;50.436;7.826;2023-06-24T04:53:29;100031.81;;;16.25;71.25
81155;BME280;70631;50.436;7.826;2023-06-24T04:55:54;100027.81;;;16.29;71.04
81155;BME280;70631;50.436;7.826;2023-06-24T04:58:19;100038.25;;;16.32;71.07
81155;BME280;70631;50.436;7.826;2023-06-24T05:00:45;100033.41;;;16.36;71.12
81155;BME280;70631;50.436;7.826;2023-06-24T05:03:10;100030.56;;;16.45;71.00
81155;BME280;70631;50.436;7.826;2023-06-24T05:05:35;100034.53;;;16.59;70.91
81155;BME280;70631;50.436;7.826;2023-06-24T05:08:00;100034.97;;;16.80;70.91
81155;BME280;70631;50.436;7.826;2023-06-24T05:10:26;100042.94;;;18.53;66.58
81155;BME280;70631;50.436;7.826;2023-06-24T05:12:51;100034.22;;;20.86;61.83
81155;BME280;70631;50.436;7.826;2023-06-24T05:15:16;100036.31;;;22.75;57.66
81155;BME280;70631;50.436;7.826;2023-06-24T05:17:42;100039.19;;;24.22;53.93
81155;BME280;70631;50.436;7.826;2023-06-24T05:20:08;100036.66;;;25.11;51.79
81155;BME280;70631;50.436;7.826;2023-06-24T05:22:34;100032.47;;;24.44;52.15
81155;BME280;70631;50.436;7.826;2023-06-24T05:24:59;100036.19;;;23.44;53.81
81155;BME280;70631;50.436;7.826;2023-06-24T05:27:24;100028.34;;;22.67;54.63
81155;BME280;70631;50.436;7.826;2023-06-24T05:29:50;100046.00;;;22.15;55.52
81155;BME280;70631;50.436;7.826;2023-06-24T05:32:15;100035.63;;;22.25;55.52
81155;BME280;70631;50.436;7.826;2023-06-24T05:34:42;100043.81;;;23.95;52.47
81155;BME280;70631;50.436;7.826;2023-06-24T05:37:08;100043.25;;;25.73;49.11
81155;BME280;70631;50.436;7.826;2023-06-24T05:39:33;100051.06;;;27.18;46.23
81155;BME280;70631;50.436;7.826;2023-06-24T05:41:58;100052.91;;;26.26;46.57
81155;BME280;70631;50.436;7.826;2023-06-24T05:44:24;100049.44;;;25.87;47.31
81155;BME280;70631;50.436;7.826;2023-06-24T05:46:49;100051.97;;;26.57;45.78
81155;BME280;70631;50.436;7.826;2023-06-24T05:49:15;100045.56;;;28.31;42.83
81155;BME280;70631;50.436;7.826;2023-06-24T05:51:40;100042.00;;;29.46;40.28
81155;BME280;70631;50.436;7.826;2023-06-24T05:54:06;100036.63;;;30.35;39.21
81155;BME280;70631;50.436;7.826;2023-06-24T05:56:33;100033.41;;;30.98;38.03
81155;BME280;70631;50.436;7.826;2023-06-24T05:58:58;100032.50;;;30.71;38.16
81155;BME280;70631;50.436;7.826;2023-06-24T06:01:24;100026.38;;;31.08;37.18
81155;BME280;70631;50.436;7.826;2023-06-24T06:03:49;100033.13;;;32.03;36.14
81155;BME280;70631;50.436;7.826;2023-06-24T06:06:15;100031.47;;;32.81;34.08
81155;BME280;70631;50.436;7.826;2023-06-24T06:08:40;100028.63;;;33.38;33.49
81155;BME280;70631;50.436;7.826;2023-06-24T06:11:05;100025.63;;;33.60;32.99
81155;BME280;70631;50.436;7.826;2023-06-24T06:13:31;100025.13;;;34.04;32.54
81155;BME280;70631;50.436;7.826;2023-06-24T06:15:57;100030.84;;;34.63;31.14
81155;BME280;70631;50.436;7.826;2023-06-24T06:18:22;100024.28;;;35.19;30.64
81155;BME280;70631;50.436;7.826;2023-06-24T06:20:48;100034.81;;;35.66;29.58
81155;BME280;70631;50.436;7.826;2023-06-24T06:23:13;100027.50;;;36.15;29.23
81155;BME280;70631;50.436;7.826;2023-06-24T06:25:38;100025.38;;;36.59;29.05
81155;BME280;70631;50.436;7.826;2023-06-24T06:28:04;100028.75;;;37.04;28.57
81155;BME280;70631;50.436;7.826;2023-06-24T06:30:30;100032.09;;;37.44;27.62
81155;BME280;70631;50.436;7.826;2023-06-24T06:32:55;100021.38;;;37.75;27.12
81155;BME280;70631;50.436;7.826;2023-06-24T06:35:20;100025.75;;;37.95;26.92
81155;BME280;70631;50.436;7.826;2023-06-24T06:37:46;100025.69;;;38.13;26.37
81155;BME280;70631;50.436;7.826;2023-06-24T06:40:17;100023.22;;;37.98;26.48
81155;BME280;70631;50.436;7.826;2023-06-24T06:42:42;100025.69;;;38.13;26.68
81155;BME280;70631;50.436;7.826;2023-06-24T06:45:07;100026.09;;;38.53;26.25
81155;BME280;70631;50.436;7.826;2023-06-24T06:47:33;100019.97;;;38.84;25.34
81155;BME280;70631;50.436;7.826;2023-06-24T06:49:58;100019.44;;;39.09;25.18
81155;BME280;70631;50.436;7.826;2023-06-24T06:52:23;100029.50;;;39.32;24.92
81155;BME280;70631;50.436;7.826;2023-06-24T06:54:48;100018.41;;;39.41;25.23
81155;BME280;70631;50.436;7.826;2023-06-24T06:57:14;100026.75;;;39.55;25.31
81155;BME280;70631;50.436;7.826;2023-06-24T06:59:39;100026.41;;;39.92;24.34
81155;BME280;70631;50.436;7.826;2023-06-24T07:02:05;100027.06;;;40.20;24.01
81155;BME280;70631;50.436;7.826;2023-06-24T07:04:30;100029.72;;;40.25;24.16
81155;BME280;70631;50.436;7.826;2023-06-24T07:06:56;100027.13;;;40.29;24.63
81155;BME280;70631;50.436;7.826;2023-06-24T07:09:21;100020.16;;;40.49;23.64
81155;BME280;70631;50.436;7.826;2023-06-24T07:11:46;100029.78;;;40.74;24.16
81155;BME280;70631;50.436;7.826;2023-06-24T07:14:12;100023.63;;;40.94;24.15
81155;BME280;70631;50.436;7.826;2023-06-24T07:16:37;100022.75;;;41.25;23.26
81155;BME280;70631;50.436;7.826;2023-06-24T07:19:03;100023.41;;;41.39;23.03
81155;BME280;70631;50.436;7.826;2023-06-24T07:21:28;100022.25;;;41.57;22.82
81155;BME280;70631;50.436;7.826;2023-06-24T07:23:53;100011.69;;;41.63;23.02
81155;BME280;70631;50.436;7.826;2023-06-24T07:26:19;100013.50;;;41.85;22.68
81155;BME280;70631;50.436;7.826;2023-06-24T07:28:44;100018.78;;;41.95;22.36
81155;BME280;70631;50.436;7.826;2023-06-24T07:31:09;100016.75;;;42.21;21.83
81155;BME280;70631;50.436;7.826;2023-06-24T07:33:35;100013.84;;;42.47;22.37
81155;BME280;70631;50.436;7.826;2023-06-24T07:36:01;100017.34;;;42.82;21.44
81155;BME280;70631;50.436;7.826;2023-06-24T07:38:28;100017.69;;;42.81;21.44
81155;BME280;70631;50.436;7.826;2023-06-24T07:40:54;100018.56;;;43.02;21.27
81155;BME280;70631;50.436;7.826;2023-06-24T07:43:19;100016.94;;;43.01;21.46
81155;BME280;70631;50.436;7.826;2023-06-24T07:45:44;100015.44;;;43.04;21.25
81155;BME280;70631;50.436;7.826;2023-06-24T07:48:10;100018.72;;;43.26;21.06
81155;BME280;70631;50.436;7.826;2023-06-24T07:50:35;100007.66;;;43.30;20.99
81155;BME280;70631;50.436;7.826;2023-06-24T07:53:01;100010.81;;;43.49;20.84
81155;BME280;70631;50.436;7.826;2023-06-24T07:55:27;100010.00;;;43.49;20.56
81155;BME280;70631;50.436;7.826;2023-06-24T07:57:52;100007.84;;;43.67;20.83
81155;BME280;70631;50.436;7.826;2023-06-24T08:00:18;100003.94;;;43.80;20.32
81155;BME280;70631;50.436;7.826;2023-06-24T08:02:43;100008.44;;;43.93;19.99
81155;BME280;70631;50.436;7.826;2023-06-24T08:05:09;100002.81;;;43.93;19.92
81155;BME280;70631;50.436;7.826;2023-06-24T08:07:35;100006.53;;;43.85;19.38
81155;BME280;70631;50.436;7.826;2023-06-24T08:10:01;100011.03;;;43.44;20.19
81155;BME280;70631;50.436;7.826;2023-06-24T08:12:26;100007.06;;;43.16;20.11
81155;BME280;70631;50.436;7.826;2023-06-24T08:14:51;100004.81;;;42.80;19.70
81155;BME280;70631;50.436;7.826;2023-06-24T08:17:17;100001.72;;;42.72;19.58
81155;BME280;70631;50.436;7.826;2023-06-24T08:19:42;99996.44;;;42.71;19.50
81155;BME280;70631;50.436;7.826;2023-06-24T08:22:07;99990.31;;;43.07;19.65
81155;BME280;70631;50.436;7.826;2023-06-24T08:24:33;99991.03;;;43.46;19.96
81155;BME280;70631;50.436;7.826;2023-06-24T08:26:58;99994.78;;;43.71;19.33
81155;BME280;70631;50.436;7.826;2023-06-24T08:29:42;100007.19;;;43.70;19.81
81155;BME280;70631;50.436;7.826;2023-06-24T08:35:11;99993.75;;;44.08;19.32
81155;BME280;70631;50.436;7.826;2023-06-24T08:37:37;99991.09;;;44.36;18.64
81155;BME280;70631;50.436;7.826;2023-06-24T08:40:04;99998.88;;;44.52;18.33
81155;BME280;70631;50.436;7.826;2023-06-24T08:42:30;100001.56;;;44.48;17.73
81155;BME280;70631;50.436;7.826;2023-06-24T08:44:55;99998.31;;;44.13;18.27
81155;BME280;70631;50.436;7.826;2023-06-24T08:50:46;99989.88;;;43.47;18.49
81155;BME280;70631;50.436;7.826;2023-06-24T08:53:16;99999.16;;;43.18;19.44
81155;BME280;70631;50.436;7.826;2023-06-24T08:55:45;99990.25;;;43.16;19.75
81155;BME280;70631;50.436;7.826;2023-06-24T08:58:11;99992.44;;;43.10;19.44
81155;BME280;70631;50.436;7.826;2023-06-24T09:00:36;99991.75;;;43.13;19.57
81155;BME280;70631;50.436;7.826;2023-06-24T09:03:02;99990.97;;;43.34;19.31
81155;BME280;70631;50.436;7.826;2023-06-24T09:05:27;99986.56;;;43.24;18.66
81155;BME280;70631;50.436;7.826;2023-06-24T09:07:53;99978.38;;;43.40;19.17
81155;BME280;70631;50.436;7.826;2023-06-24T09:10:35;99980.16;;;43.44;19.06
81155;BME280;70631;50.436;7.826;2023-06-24T09:13:02;99983.34;;;43.55;18.96
81155;BME280;70631;50.436;7.826;2023-06-24T09:15:32;99977.84;;;43.58;18.87
81155;BME280;70631;50.436;7.826;2023-06-24T09:17:58;99976.03;;;43.00;18.74
81155;BME280;70631;50.436;7.826;2023-06-24T09:20:28;99974.00;;;42.71;19.00
81155;BME280;70631;50.436;7.826;2023-06-24T09:23:02;99971.38;;;41.72;20.09
81155;BME280;70631;50.436;7.826;2023-06-24T09:25:28;99964.91;;;42.06;19.84
81155;BME280;70631;50.436;7.826;2023-06-24T09:27:54;99952.31;;;42.21;19.16
81155;BME280;70631;50.436;7.826;2023-06-24T09:30:22;99963.50;;;41.48;20.03
81155;BME280;70631;50.436;7.826;2023-06-24T09:32:48;99961.19;;;41.42;20.15
81155;BME280;70631;50.436;7.826;2023-06-24T09:35:18;99962.00;;;41.51;19.30
81155;BME280;70631;50.436;7.826;2023-06-24T09:37:55;99950.59;;;41.91;18.87
81155;BME280;70631;50.436;7.826;2023-06-24T09:40:22;99952.25;;;41.92;19.28
81155;BME280;70631;50.436;7.826;2023-06-24T09:42:52;99948.59;;;42.00;19.09
81155;BME280;70631;50.436;7.826;2023-06-24T09:45:23;99939.97;;;42.22;20.08
81155;BME280;70631;50.436;7.826;2023-06-24T09:47:48;99942.16;;;42.55;19.91
81155;BME280;70631;50.436;7.826;2023-06-24T09:50:13;99946.66;;;42.68;19.48
81155;BME280;70631;50.436;7.826;2023-06-24T09:52:39;99938.88;;;42.53;19.93
81155;BME280;70631;50.436;7.826;2023-06-24T09:55:05;99941.53;;;42.40;18.84
81155;BME280;70631;50.436;7.826;2023-06-24T09:57:33;99944.53;;;42.27;18.80
81155;BME280;70631;50.436;7.826;2023-06-24T10:00:00;99923.53;;;42.12;19.08
81155;BME280;70631;50.436;7.826;2023-06-24T10:02:29;99930.19;;;41.81;19.30
81155;BME280;70631;50.436;7.826;2023-06-24T10:04:56;99920.63;;;41.83;20.10
81155;BME280;70631;50.436;7.826;2023-06-24T10:07:21;99927.94;;;41.49;19.78
81155;BME280;70631;50.436;7.826;2023-06-24T10:09:47;99921.38;;;41.45;20.31
81155;BME280;70631;50.436;7.826;2023-06-24T10:12:13;99919.34;;;41.54;20.13
81155;BME280;70631;50.436;7.826;2023-06-24T10:14:39;99916.75;;;41.66;20.34
81155;BME280;70631;50.436;7.826;2023-06-24T10:17:04;99911.97;;;42.05;20.06
81155;BME280;70631;50.436;7.826;2023-06-24T10:19:40;99914.31;;;42.41;19.58
81155;BME280;70631;50.436;7.826;2023-06-24T10:22:09;99910.69;;;42.70;18.56
81155;BME280;70631;50.436;7.826;2023-06-24T10:24:39;99901.09;;;43.00;18.83
81155;BME280;70631;50.436;7.826;2023-06-24T10:27:08;99899.91;;;42.60;19.14
81155;BME280;70631;50.436;7.826;2023-06-24T10:29:35;99900.28;;;42.50;19.62
81155;BME280;70631;50.436;7.826;2023-06-24T10:32:08;99897.59;;;42.83;19.74
81155;BME280;70631;50.436;7.826;2023-06-24T10:34:38;99888.63;;;43.31;18.80
81155;BME280;70631;50.436;7.826;2023-06-24T10:37:04;99882.91;;;43.07;18.79
81155;BME280;70631;50.436;7.826;2023-06-24T10:39:52;99891.22;;;42.44;19.72
81155;BME280;70631;50.436;7.826;2023-06-24T10:44:48;99885.31;;;40.91;21.32
81155;BME280;70631;50.436;7.826;2023-06-24T10:47:14;99882.34;;;41.48;20.89
81155;BME280;70631;50.436;7.826;2023-06-24T10:49:39;99888.19;;;41.81;20.76
81155;BME280;70631;50.436;7.826;2023-06-24T10:52:07;99880.50;;;42.17;20.61
81155;BME280;70631;50.436;7.826;2023-06-24T10:54:34;99878.56;;;42.67;19.73
81155;BME280;70631;50.436;7.826;2023-06-24T10:57:00;99880.66;;;42.50;19.00
81155;BME280;70631;50.436;7.826;2023-06-24T10:59:25;99874.44;;;41.68;20.09
81155;BME280;70631;50.436;7.826;2023-06-24T11:01:54;99879.84;;;39.81;21.00
81155;BME280;70631;50.436;7.826;2023-06-24T11:04:19;99874.75;;;37.89;22.96
81155;BME280;70631;50.436;7.826;2023-06-24T11:06:58;99872.81;;;36.68;24.33
81155;BME280;70631;50.436;7.826;2023-06-24T11:09:23;99880.41;;;35.91;25.74
81155;BME280;70631;50.436;7.826;2023-06-24T11:11:49;99873.69;;;35.34;26.72
81155;BME280;70631;50.436;7.826;2023-06-24T11:14:15;99869.63;;;34.82;27.03
81155;BME280;70631;50.436;7.826;2023-06-24T11:16:41;99869.50;;;35.70;27.67
81155;BME280;70631;50.436;7.826;2023-06-24T11:19:06;99864.31;;;37.16;26.03
81155;BME280;70631;50.436;7.826;2023-06-24T11:21:31;99863.34;;;38.32;24.55
81155;BME280;70631;50.436;7.826;2023-06-24T11:24:00;99853.28;;;39.08;23.48
81155;BME280;70631;50.436;7.826;2023-06-24T11:26:26;99853.00;;;39.63;22.83
81155;BME280;70631;50.436;7.826;2023-06-24T11:28:52;99850.00;;;39.90;22.71
81155;BME280;70631;50.436;7.826;2023-06-24T11:31:17;99846.66;;;39.71;22.67
81155;BME280;70631;50.436;7.826;2023-06-24T11:33:42;99838.22;;;38.95;22.76
81155;BME280;70631;50.436;7.826;2023-06-24T11:36:10;99843.34;;;38.30;23.76
81155;BME280;70631;50.436;7.826;2023-06-24T11:38:36;99843.44;;;37.97;24.28
81155;BME280;70631;50.436;7.826;2023-06-24T11:41:01;99839.91;;;37.31;24.36
81155;BME280;70631;50.436;7.826;2023-06-24T11:43:27;99836.94;;;36.90;25.51
81155;BME280;70631;50.436;7.826;2023-06-24T11:45:52;99833.03;;;36.72;25.55
81155;BME280;70631;50.436;7.826;2023-06-24T11:48:20;99834.88;;;36.58;25.78
81155;BME280;70631;50.436;7.826;2023-06-24T11:50:53;99829.69;;;36.09;25.31
81155;BME280;70631;50.436;7.826;2023-06-24T11:53:40;99826.16;;;35.50;25.79
81155;BME280;70631;50.436;7.826;2023-06-24T11:56:06;99828.72;;;35.08;26.08
81155;BME280;70631;50.436;7.826;2023-06-24T11:58:34;99819.16;;;34.95;27.39
81155;BME280;70631;50.436;7.826;2023-06-24T12:01:01;99820.34;;;34.79;27.05
81155;BME280;70631;50.436;7.826;2023-06-24T12:03:28;99817.78;;;34.43;26.83
81155;BME280;70631;50.436;7.826;2023-06-24T12:05:54;99817.66;;;34.09;27.52
81155;BME280;70631;50.436;7.826;2023-06-24T12:08:19;99809.13;;;34.06;27.40
81155;BME280;70631;50.436;7.826;2023-06-24T12:10:45;99803.59;;;33.95;27.89
81155;BME280;70631;50.436;7.826;2023-06-24T12:13:11;99794.47;;;34.00;27.80
81155;BME280;70631;50.436;7.826;2023-06-24T12:15:36;99804.16;;;33.97;27.50
81155;BME280;70631;50.436;7.826;2023-06-24T12:18:02;99800.00;;;34.00;27.68
81155;BME280;70631;50.436;7.826;2023-06-24T12:20:29;99800.25;;;34.09;27.51
81155;BME280;70631;50.436;7.826;2023-06-24T12:22:55;99793.59;;;34.05;27.56
81155;BME280;70631;50.436;7.826;2023-06-24T12:25:20;99785.91;;;33.96;27.65
81155;BME280;70631;50.436;7.826;2023-06-24T12:27:46;99785.44;;;33.69;27.42
81155;BME280;70631;50.436;7.826;2023-06-24T12:30:12;99792.97;;;33.33;27.77
81155;BME280;70631;50.436;7.826;2023-06-24T12:32:38;99784.94;;;32.96;28.32
81155;BME280;70631;50.436;7.826;2023-06-24T12:35:04;99783.81;;;32.76;29.03
81155;BME280;70631;50.436;7.826;2023-06-24T12:37:33;99784.38;;;32.78;29.34
81155;BME280;70631;50.436;7.826;2023-06-24T12:39:59;99784.41;;;33.04;29.61
81155;BME280;70631;50.436;7.826;2023-06-24T12:42:25;99778.31;;;33.27;28.88
81155;BME280;70631;50.436;7.826;2023-06-24T12:44:50;99775.81;;;33.36;28.79
81155;BME280;70631;50.436;7.826;2023-06-24T12:47:16;99773.88;;;33.31;28.66
81155;BME280;70631;50.436;7.826;2023-06-24T12:49:41;99774.44;;;33.28;28.95
81155;BME280;70631;50.436;7.826;2023-06-24T12:52:06;99759.81;;;33.33;28.60
81155;BME280;70631;50.436;7.826;2023-06-24T12:54:31;99758.44;;;33.40;28.69
81155;BME280;70631;50.436;7.826;2023-06-24T12:56:57;99760.88;;;33.47;28.64
81155;BME280;70631;50.436;7.826;2023-06-24T12:59:22;99766.63;;;33.61;28.52
81155;BME280;70631;50.436;7.826;2023-06-24T13:01:48;99759.47;;;33.65;27.94
81155;BME280;70631;50.436;7.826;2023-06-24T13:04:13;99756.75;;;33.39;27.86